createdAt,value
2022-09-15T00:00:01.248Z,99.99
2022-09-15T00:01:01.249Z,99.99
2022-09-15T00:02:01.389Z,99.99
2022-09-15T00:03:01.318Z,99.99
2022-09-15T00:04:01.245Z,99.99
2022-09-15T00:05:01.249Z,99.99
2022-09-15T00:06:01.264Z,99.99
2022-09-15T00:07:01.245Z,99.99
2022-09-15T00:08:01.240Z,99.99
2022-09-15T00:09:01.239Z,99.99
2022-09-15T00:10:01.235Z,99.99
2022-09-15T00:11:01.238Z,99.99
2022-09-15T00:12:01.234Z,99.99
2022-09-15T00:13:01.235Z,99.99
2022-09-15T00:14:01.231Z,99.99
2022-09-15T00:15:01.233Z,99.99
2022-09-15T00:16:01.230Z,99.99
2022-09-15T00:17:01.365Z,99.99
2022-09-15T00:18:01.226Z,99.99
2022-09-15T00:19:01.228Z,99.99
2022-09-15T00:20:01.222Z,99.99
2022-09-15T00:21:01.225Z,99.99
2022-09-15T00:22:01.239Z,99.99
2022-09-15T00:23:01.226Z,99.99
2022-09-15T00:24:01.219Z,99.99
2022-09-15T00:25:01.221Z,99.99
2022-09-15T00:26:01.216Z,99.99
2022-09-15T00:27:01.220Z,99.99
2022-09-15T00:28:01.214Z,99.99
2022-09-15T00:29:01.214Z,99.99
2022-09-15T00:30:01.213Z,99.99
2022-09-15T00:31:01.380Z,99.99
2022-09-15T00:32:01.214Z,99.99
2022-09-15T00:33:01.208Z,99.99
2022-09-15T00:34:01.205Z,99.99
2022-09-15T00:35:01.207Z,99.99
2022-09-15T00:36:01.202Z,99.99
2022-09-15T00:37:01.202Z,99.99
2022-09-15T00:38:01.219Z,99.99
2022-09-15T00:39:01.203Z,99.99
2022-09-15T00:40:01.265Z,99.99
2022-09-15T00:41:01.201Z,99.99
2022-09-15T00:42:01.206Z,99.99
2022-09-15T00:43:01.198Z,99.99
2022-09-15T00:44:01.203Z,99.99
2022-09-15T00:45:01.192Z,99.99
2022-09-15T00:46:01.348Z,99.99
2022-09-15T00:47:18.339Z,99.99
2022-09-15T00:48:01.191Z,99.99
2022-09-15T00:49:01.188Z,99.99
2022-09-15T00:50:01.192Z,99.99
2022-09-15T00:51:01.187Z,99.99
2022-09-15T00:52:01.186Z,99.99
2022-09-15T00:53:01.185Z,99.99
2022-09-15T00:54:01.206Z,99.99
2022-09-15T00:55:01.182Z,99.99
2022-09-15T00:56:01.179Z,99.99
2022-09-15T00:57:01.177Z,99.99
2022-09-15T00:58:01.177Z,99.99
2022-09-15T00:59:01.177Z,99.99
2022-09-15T01:00:01.173Z,99.99
2022-09-15T01:01:01.275Z,99.99
2022-09-15T01:02:01.218Z,99.99
2022-09-15T01:03:01.170Z,99.99
2022-09-15T01:04:01.170Z,99.99
2022-09-15T01:05:01.170Z,99.99
2022-09-15T01:06:01.166Z,99.99
2022-09-15T01:07:01.166Z,99.99
2022-09-15T01:08:01.166Z,99.99
2022-09-15T01:09:01.165Z,99.99
2022-09-15T01:10:01.184Z,99.99
2022-09-15T01:11:01.161Z,99.99
2022-09-15T01:12:01.164Z,99.99
2022-09-15T01:13:01.161Z,99.99
2022-09-15T01:14:01.161Z,99.99
2022-09-15T01:15:01.157Z,99.99
2022-09-15T01:16:01.230Z,99.99
2022-09-15T01:17:01.156Z,99.99
2022-09-15T01:18:01.156Z,99.99
2022-09-15T01:19:01.166Z,99.99
2022-09-15T01:20:01.155Z,99.99
2022-09-15T01:21:01.150Z,99.99
2022-09-15T01:22:01.151Z,99.99
2022-09-15T01:23:01.148Z,99.99
2022-09-15T01:24:01.152Z,99.99
2022-09-15T01:25:01.147Z,99.99
2022-09-15T01:26:01.162Z,99.99
2022-09-15T01:27:09.650Z,99.99
2022-09-15T01:28:01.144Z,99.99
2022-09-15T01:29:01.140Z,99.99
2022-09-15T01:30:01.161Z,99.99
2022-09-15T01:31:01.151Z,99.99
2022-09-15T01:32:01.224Z,99.99
2022-09-15T01:33:01.136Z,99.99
2022-09-15T01:34:01.138Z,99.99
2022-09-15T01:35:01.199Z,99.99
2022-09-15T01:36:01.137Z,99.99
2022-09-15T01:37:01.131Z,99.99
2022-09-15T01:38:01.133Z,99.93
2022-09-15T01:39:01.167Z,99.67
2022-09-15T01:40:01.187Z,98.86
2022-09-15T01:41:01.128Z,98.05
2022-09-15T01:42:01.146Z,97.17
2022-09-15T01:43:01.125Z,96.87
2022-09-15T01:44:01.126Z,97.07
2022-09-15T01:45:01.123Z,96.87
2022-09-15T01:46:01.210Z,97.02
2022-09-15T01:47:01.123Z,97.02
2022-09-15T01:48:01.121Z,97.53
2022-09-15T01:49:01.120Z,97.32
2022-09-15T01:50:01.121Z,98.65
2022-09-15T01:51:01.122Z,98.44
2022-09-15T01:52:01.119Z,98.14
2022-09-15T01:53:01.119Z,97.73
2022-09-15T01:54:01.115Z,97.53
2022-09-15T01:55:01.116Z,97.12
2022-09-15T01:56:01.113Z,97.12
2022-09-15T01:57:01.114Z,97.63
2022-09-15T01:58:01.131Z,97.78
2022-09-15T01:59:01.110Z,97.69
2022-09-15T02:00:01.112Z,97.22
2022-09-15T02:01:01.179Z,96.92
2022-09-15T02:02:01.207Z,97.17
2022-09-15T02:03:01.110Z,96.81
2022-09-15T02:04:01.123Z,95.90
2022-09-15T02:05:01.106Z,95.49
2022-09-15T02:06:01.112Z,95.53
2022-09-15T02:07:01.106Z,95.53
2022-09-15T02:08:01.107Z,95.74
2022-09-15T02:09:01.098Z,95.23
2022-09-15T02:10:01.103Z,95.23
2022-09-15T02:11:01.100Z,95.13
2022-09-15T02:12:01.104Z,95.48
2022-09-15T02:13:01.095Z,95.64
2022-09-15T02:14:01.118Z,96.04
2022-09-15T02:15:01.096Z,95.78
2022-09-15T02:16:01.190Z,95.48
2022-09-15T02:17:01.090Z,95.78
2022-09-15T02:18:01.096Z,95.98
2022-09-15T02:19:01.091Z,96.30
2022-09-15T02:20:01.099Z,96.09
2022-09-15T02:21:01.086Z,96.30
2022-09-15T02:22:01.091Z,96.30
2022-09-15T02:23:01.085Z,96.50
2022-09-15T02:24:01.084Z,97.31
2022-09-15T02:25:01.083Z,97.31
2022-09-15T02:26:01.082Z,97.21
2022-09-15T02:27:01.082Z,97.72
2022-09-15T02:28:01.081Z,97.62
2022-09-15T02:29:01.077Z,97.62
2022-09-15T02:30:01.102Z,98.33
2022-09-15T02:31:01.076Z,98.33
2022-09-15T02:32:06.221Z,98.58
2022-09-15T02:33:01.077Z,98.02
2022-09-15T02:34:01.072Z,97.82
2022-09-15T02:35:01.075Z,98.13
2022-09-15T02:36:01.073Z,98.33
2022-09-15T02:37:01.068Z,98.49
2022-09-15T02:38:01.071Z,97.78
2022-09-15T02:39:01.067Z,96.80
2022-09-15T02:40:01.094Z,97.00
2022-09-15T02:41:01.063Z,96.60
2022-09-15T02:42:01.065Z,97.31
2022-09-15T02:43:01.064Z,97.00
2022-09-15T02:44:01.063Z,95.98
2022-09-15T02:45:01.058Z,95.78
2022-09-15T02:46:01.131Z,95.28
2022-09-15T02:47:01.059Z,94.40
2022-09-15T02:48:01.055Z,95.01
2022-09-15T02:49:01.054Z,94.50
2022-09-15T02:50:01.060Z,95.07
2022-09-15T02:51:01.054Z,95.62
2022-09-15T02:52:01.057Z,95.32
2022-09-15T02:53:01.051Z,94.91
2022-09-15T02:54:01.051Z,95.32
2022-09-15T02:55:01.055Z,95.28
2022-09-15T02:56:01.048Z,95.42
2022-09-15T02:57:01.048Z,95.32
2022-09-15T02:58:01.050Z,95.42
2022-09-15T02:59:01.070Z,95.87
2022-09-15T03:00:01.075Z,96.08
2022-09-15T03:01:01.079Z,95.87
2022-09-15T03:02:01.101Z,95.87
2022-09-15T03:03:01.041Z,95.97
2022-09-15T03:04:01.041Z,95.97
2022-09-15T03:05:01.105Z,96.12
2022-09-15T03:06:01.040Z,96.38
2022-09-15T03:07:01.036Z,96.79
2022-09-15T03:08:01.033Z,97.40
2022-09-15T03:09:01.034Z,97.40
2022-09-15T03:10:01.032Z,97.09
2022-09-15T03:11:01.035Z,97.61
2022-09-15T03:12:01.025Z,97.71
2022-09-15T03:13:01.031Z,98.02
2022-09-15T03:14:01.030Z,97.97
2022-09-15T03:15:01.025Z,98.18
2022-09-15T03:16:01.075Z,98.38
2022-09-15T03:17:01.029Z,98.58
2022-09-15T03:18:01.041Z,98.48
2022-09-15T03:19:01.017Z,98.43
2022-09-15T03:20:01.023Z,98.94
2022-09-15T03:21:01.014Z,98.64
2022-09-15T03:22:01.013Z,98.43
2022-09-15T03:23:01.014Z,98.43
2022-09-15T03:24:01.018Z,98.79
2022-09-15T03:25:01.012Z,98.59
2022-09-15T03:26:01.009Z,98.90
2022-09-15T03:27:01.011Z,98.34
2022-09-15T03:28:01.009Z,98.49
2022-09-15T03:29:01.007Z,98.59
2022-09-15T03:30:01.008Z,98.44
2022-09-15T03:31:01.022Z,98.44
2022-09-15T03:32:01.022Z,98.65
2022-09-15T03:33:01.000Z,98.75
2022-09-15T03:34:01.020Z,98.95
2022-09-15T03:35:00.999Z,99.61
2022-09-15T03:36:00.999Z,99.36
2022-09-15T03:37:00.997Z,99.16
2022-09-15T03:38:01.000Z,99.26
2022-09-15T03:39:00.996Z,99.36
2022-09-15T03:40:01.073Z,99.66
2022-09-15T03:41:00.992Z,99.66
2022-09-15T03:42:01.003Z,99.97
2022-09-15T03:43:00.989Z,99.82
2022-09-15T03:44:00.990Z,99.72
2022-09-15T03:45:00.988Z,99.72
2022-09-15T03:46:01.084Z,99.62
2022-09-15T03:47:00.985Z,99.82
2022-09-15T03:48:00.986Z,99.52
2022-09-15T03:49:00.984Z,99.77
2022-09-15T03:50:01.009Z,99.62
2022-09-15T03:51:00.981Z,99.62
2022-09-15T03:52:00.980Z,99.82
2022-09-15T03:53:00.976Z,99.77
2022-09-15T03:54:00.987Z,99.77
2022-09-15T03:55:00.977Z,99.77
2022-09-15T03:56:00.974Z,99.77
2022-09-15T03:57:00.973Z,99.57
2022-09-15T03:58:00.973Z,99.67
2022-09-15T03:59:00.974Z,99.47
2022-09-15T04:00:00.973Z,99.37
2022-09-15T04:01:01.051Z,99.37
2022-09-15T04:02:01.022Z,99.67
2022-09-15T04:03:00.966Z,99.57
2022-09-15T04:04:00.964Z,99.77
2022-09-15T04:05:00.967Z,99.67
2022-09-15T04:06:00.988Z,99.67
2022-09-15T04:07:00.969Z,99.67
2022-09-15T04:08:00.963Z,99.73
2022-09-15T04:09:00.961Z,99.83
2022-09-15T04:10:00.961Z,99.67
2022-09-15T04:11:00.961Z,99.67
2022-09-15T04:12:00.964Z,99.37
2022-09-15T04:13:00.955Z,99.57
2022-09-15T04:14:00.964Z,99.73
2022-09-15T04:15:00.955Z,99.73
2022-09-15T04:16:01.084Z,99.73
2022-09-15T04:17:00.951Z,99.83
2022-09-15T04:18:00.955Z,99.73
2022-09-15T04:19:00.948Z,99.32
2022-09-15T04:20:00.946Z,99.32
2022-09-15T04:21:00.945Z,99.32
2022-09-15T04:22:00.966Z,99.32
2022-09-15T04:23:00.947Z,99.52
2022-09-15T04:24:00.943Z,99.58
2022-09-15T04:25:00.943Z,99.58
2022-09-15T04:26:00.944Z,99.63
2022-09-15T04:27:00.943Z,99.73
2022-09-15T04:28:00.947Z,99.93
2022-09-15T04:29:04.298Z,99.48
2022-09-15T04:30:00.952Z,99.48
2022-09-15T04:31:01.020Z,99.32
2022-09-15T04:32:00.943Z,99.38
2022-09-15T04:33:00.939Z,99.27
2022-09-15T04:34:00.951Z,99.32
2022-09-15T04:35:00.934Z,99.48
2022-09-15T04:36:00.931Z,99.38
2022-09-15T04:37:00.934Z,99.58
2022-09-15T04:38:00.961Z,99.93
2022-09-15T04:39:00.933Z,99.88
2022-09-15T04:40:00.986Z,99.99
2022-09-15T04:41:00.930Z,99.99
2022-09-15T04:42:00.930Z,99.99
2022-09-15T04:43:00.925Z,99.99
2022-09-15T04:44:00.927Z,99.99
2022-09-15T04:45:00.923Z,99.99
2022-09-15T04:46:00.924Z,99.99
2022-09-15T04:47:01.036Z,99.99
2022-09-15T04:48:00.922Z,99.99
2022-09-15T04:49:00.926Z,99.99
2022-09-15T04:50:00.921Z,99.99
2022-09-15T04:51:00.917Z,99.99
2022-09-15T04:52:00.920Z,99.99
2022-09-15T04:53:00.914Z,99.88
2022-09-15T04:54:00.941Z,99.84
2022-09-15T04:55:00.915Z,99.99
2022-09-15T04:56:00.911Z,99.99
2022-09-15T04:57:00.914Z,99.99
2022-09-15T04:58:00.910Z,99.99
2022-09-15T04:59:03.923Z,99.99
2022-09-15T05:00:00.928Z,99.99
2022-09-15T05:01:00.969Z,99.99
2022-09-15T05:02:00.970Z,99.84
2022-09-15T05:03:00.913Z,99.58
2022-09-15T05:04:00.908Z,99.99
2022-09-15T05:05:00.910Z,99.99
2022-09-15T05:06:00.903Z,99.99
2022-09-15T05:07:00.906Z,99.99
2022-09-15T05:08:00.904Z,99.99
2022-09-15T05:09:00.904Z,99.99
2022-09-15T05:10:00.921Z,99.99
2022-09-15T05:11:00.901Z,99.99
2022-09-15T05:12:00.896Z,99.99
2022-09-15T05:13:00.898Z,99.99
2022-09-15T05:14:00.900Z,99.99
2022-09-15T05:15:00.896Z,99.99
2022-09-15T05:16:00.923Z,99.94
2022-09-15T05:17:00.895Z,99.99
2022-09-15T05:18:00.895Z,99.99
2022-09-15T05:19:00.908Z,99.99
2022-09-15T05:20:00.899Z,99.99
2022-09-15T05:21:00.893Z,99.99
2022-09-15T05:22:00.896Z,99.99
2022-09-15T05:23:00.894Z,99.99
2022-09-15T05:24:00.889Z,99.99
2022-09-15T05:25:00.889Z,99.99
2022-09-15T05:26:00.904Z,99.99
2022-09-15T05:27:00.885Z,99.99
2022-09-15T05:28:00.919Z,99.99
2022-09-15T05:29:00.889Z,99.99
2022-09-15T05:30:31.808Z,99.99
2022-09-15T05:31:00.927Z,99.94
2022-09-15T05:32:00.884Z,99.99
2022-09-15T05:33:00.884Z,99.84
2022-09-15T05:34:00.879Z,99.22
2022-09-15T05:35:00.894Z,99.53
2022-09-15T05:36:00.876Z,99.33
2022-09-15T05:37:00.880Z,99.74
2022-09-15T05:38:00.882Z,99.63
2022-09-15T05:39:00.875Z,99.53
2022-09-15T05:40:03.262Z,99.53
2022-09-15T05:41:00.877Z,99.13
2022-09-15T05:42:00.912Z,99.33
2022-09-15T05:43:00.881Z,99.33
2022-09-15T05:44:00.873Z,98.82
2022-09-15T05:45:00.872Z,98.82
2022-09-15T05:46:00.874Z,99.13
2022-09-15T05:47:00.971Z,98.92
2022-09-15T05:48:00.868Z,99.18
2022-09-15T05:49:00.865Z,98.92
2022-09-15T05:50:00.865Z,98.97
2022-09-15T05:51:00.865Z,99.13
2022-09-15T05:52:00.864Z,99.74
2022-09-15T05:53:00.867Z,99.43
2022-09-15T05:54:00.890Z,99.43
2022-09-15T05:55:00.864Z,99.74
2022-09-15T05:56:00.860Z,99.69
2022-09-15T05:57:00.860Z,99.99
2022-09-15T05:58:00.882Z,99.89
2022-09-15T05:59:00.865Z,99.79
2022-09-15T06:00:00.891Z,99.99
2022-09-15T06:01:00.862Z,99.79
2022-09-15T06:02:00.904Z,99.89
2022-09-15T06:03:00.880Z,99.84
2022-09-15T06:04:00.853Z,99.94
2022-09-15T06:05:00.860Z,99.69
2022-09-15T06:06:00.875Z,99.69
2022-09-15T06:07:00.858Z,99.58
2022-09-15T06:08:00.853Z,99.49
2022-09-15T06:09:01.245Z,99.79
2022-09-15T06:10:00.866Z,99.58
2022-09-15T06:11:00.851Z,99.58
2022-09-15T06:12:00.847Z,99.79
2022-09-15T06:13:00.849Z,99.63
2022-09-15T06:14:00.864Z,99.69
2022-09-15T06:15:00.848Z,99.79
2022-09-15T06:16:00.918Z,99.89
2022-09-15T06:17:00.844Z,99.99
2022-09-15T06:18:00.843Z,99.89
2022-09-15T06:19:00.842Z,99.99
2022-09-15T06:20:00.840Z,99.99
2022-09-15T06:21:00.842Z,99.99
2022-09-15T06:22:00.842Z,99.99
2022-09-15T06:23:00.844Z,99.69
2022-09-15T06:24:00.839Z,99.89
2022-09-15T06:25:00.841Z,99.99
2022-09-15T06:26:00.837Z,99.49
2022-09-15T06:27:00.838Z,99.99
2022-09-15T06:28:00.835Z,99.99
2022-09-15T06:29:00.836Z,99.69
2022-09-15T06:30:00.862Z,99.99
2022-09-15T06:31:00.838Z,99.99
2022-09-15T06:32:00.878Z,99.99
2022-09-15T06:33:00.846Z,99.99
2022-09-15T06:34:00.833Z,99.99
2022-09-15T06:35:00.834Z,99.99
2022-09-15T06:36:00.838Z,99.99
2022-09-15T06:37:00.829Z,99.99
2022-09-15T06:38:00.828Z,99.85
2022-09-15T06:39:00.830Z,99.99
2022-09-15T06:40:00.857Z,99.95
2022-09-15T06:41:00.832Z,99.44
2022-09-15T06:42:03.663Z,99.74
2022-09-15T06:43:00.827Z,99.99
2022-09-15T06:44:00.824Z,99.99
2022-09-15T06:45:00.823Z,99.64
2022-09-15T06:46:00.889Z,99.99
2022-09-15T06:47:00.824Z,99.99
2022-09-15T06:48:22.868Z,99.85
2022-09-15T06:49:00.821Z,99.95
2022-09-15T06:50:00.825Z,99.99
2022-09-15T06:51:00.821Z,99.99
2022-09-15T06:52:00.819Z,99.99
2022-09-15T06:53:00.819Z,99.99
2022-09-15T06:54:00.819Z,99.99
2022-09-15T06:55:00.820Z,99.99
2022-09-15T06:56:00.817Z,99.99
2022-09-15T06:57:00.821Z,99.99
2022-09-15T06:58:00.820Z,99.99
2022-09-15T06:59:00.815Z,99.90
2022-09-15T07:00:00.833Z,99.99
2022-09-15T07:01:00.818Z,99.99
2022-09-15T07:02:04.907Z,99.99
2022-09-15T07:03:00.969Z,99.99
2022-09-15T07:04:00.823Z,99.99
2022-09-15T07:05:00.815Z,99.99
2022-09-15T07:06:00.811Z,99.99
2022-09-15T07:07:00.813Z,99.99
2022-09-15T07:08:00.809Z,99.99
2022-09-15T07:09:00.809Z,99.80
2022-09-15T07:10:00.812Z,99.90
2022-09-15T07:11:00.811Z,99.69
2022-09-15T07:12:00.808Z,99.90
2022-09-15T07:13:00.818Z,99.80
2022-09-15T07:14:00.816Z,99.90
2022-09-15T07:15:00.814Z,99.90
2022-09-15T07:16:00.875Z,99.80
2022-09-15T07:17:00.807Z,99.99
2022-09-15T07:18:00.822Z,99.99
2022-09-15T07:19:00.825Z,99.99
2022-09-15T07:20:00.803Z,99.80
2022-09-15T07:21:00.810Z,99.60
2022-09-15T07:22:00.805Z,99.99
2022-09-15T07:23:00.803Z,99.90
2022-09-15T07:24:06.299Z,99.99
2022-09-15T07:25:00.806Z,99.90
2022-09-15T07:26:00.802Z,99.99
2022-09-15T07:27:00.801Z,99.99
2022-09-15T07:28:00.797Z,99.99
2022-09-15T07:29:00.800Z,99.99
2022-09-15T07:30:00.796Z,99.99
2022-09-15T07:31:00.798Z,99.99
2022-09-15T07:32:00.834Z,99.99
2022-09-15T07:33:00.803Z,99.99
2022-09-15T07:34:00.814Z,99.99
2022-09-15T07:35:00.796Z,99.99
2022-09-15T07:36:00.794Z,99.99
2022-09-15T07:37:00.793Z,99.99
2022-09-15T07:38:00.795Z,99.99
2022-09-15T07:39:00.795Z,99.99
2022-09-15T07:40:00.825Z,99.99
2022-09-15T07:41:00.793Z,99.99
2022-09-15T07:42:00.799Z,99.99
2022-09-15T07:43:00.797Z,99.99
2022-09-15T07:44:00.788Z,99.99
2022-09-15T07:45:00.791Z,99.75
2022-09-15T07:46:00.907Z,99.75
2022-09-15T07:47:00.792Z,99.55
2022-09-15T07:48:00.787Z,99.99
2022-09-15T07:49:00.798Z,99.75
2022-09-15T07:50:00.825Z,99.14
2022-09-15T07:51:00.794Z,99.44
2022-09-15T07:52:00.786Z,99.65
2022-09-15T07:53:00.789Z,99.85
2022-09-15T07:54:00.791Z,99.55
2022-09-15T07:55:00.783Z,99.99
2022-09-15T07:56:00.783Z,99.99
2022-09-15T07:57:00.785Z,99.99
2022-09-15T07:58:00.782Z,99.99
2022-09-15T07:59:00.783Z,99.99
2022-09-15T08:00:00.786Z,99.99
2022-09-15T08:01:00.831Z,99.99
2022-09-15T08:02:00.841Z,99.99
2022-09-15T08:03:00.781Z,99.99
2022-09-15T08:04:00.779Z,99.99
2022-09-15T08:05:00.779Z,99.99
2022-09-15T08:06:00.823Z,99.91
2022-09-15T08:07:00.780Z,99.95
2022-09-15T08:08:00.775Z,99.99
2022-09-15T08:09:01.208Z,99.99
2022-09-15T08:10:00.776Z,99.99
2022-09-15T08:11:00.779Z,99.80
2022-09-15T08:12:00.774Z,99.99
2022-09-15T08:13:00.774Z,99.99
2022-09-15T08:14:00.773Z,99.85
2022-09-15T08:15:00.775Z,99.99
2022-09-15T08:16:00.828Z,99.99
2022-09-15T08:17:00.771Z,99.99
2022-09-15T08:18:00.771Z,99.99
2022-09-15T08:19:00.773Z,99.99
2022-09-15T08:20:00.768Z,99.99
2022-09-15T08:21:00.772Z,99.99
2022-09-15T08:22:00.789Z,99.99
2022-09-15T08:23:00.775Z,99.99
2022-09-15T08:24:00.772Z,99.99
2022-09-15T08:25:00.776Z,99.80
2022-09-15T08:26:00.772Z,99.99
2022-09-15T08:27:00.782Z,99.99
2022-09-15T08:28:00.767Z,99.99
2022-09-15T08:29:00.773Z,99.99
2022-09-15T08:30:00.773Z,99.99
2022-09-15T08:31:00.814Z,99.99
2022-09-15T08:32:00.764Z,99.99
2022-09-15T08:33:00.764Z,99.99
2022-09-15T08:34:00.765Z,99.99
2022-09-15T08:35:00.771Z,99.99
2022-09-15T08:36:00.763Z,99.99
2022-09-15T08:37:00.764Z,99.99
2022-09-15T08:38:00.803Z,99.91
2022-09-15T08:39:00.759Z,99.80
2022-09-15T08:40:00.816Z,99.80
2022-09-15T08:41:00.761Z,99.99
2022-09-15T08:42:00.757Z,99.80
2022-09-15T08:43:00.757Z,99.99
2022-09-15T08:44:00.756Z,99.91
2022-09-15T08:45:00.759Z,99.99
2022-09-15T08:46:00.841Z,99.50
2022-09-15T08:47:00.766Z,99.80
2022-09-15T08:48:00.761Z,99.99
2022-09-15T08:49:02.958Z,99.99
2022-09-15T08:50:00.762Z,99.99
2022-09-15T08:51:00.753Z,99.99
2022-09-15T08:52:00.754Z,99.76
2022-09-15T08:53:00.754Z,99.96
2022-09-15T08:54:00.852Z,99.99
2022-09-15T08:55:00.753Z,99.86
2022-09-15T08:56:00.749Z,99.99
2022-09-15T08:57:00.752Z,99.99
2022-09-15T08:58:00.749Z,99.99
2022-09-15T08:59:00.751Z,99.91
2022-09-15T09:00:00.747Z,99.55
2022-09-15T09:01:00.752Z,99.46
2022-09-15T09:02:00.841Z,99.71
2022-09-15T09:03:00.814Z,99.66
2022-09-15T09:04:00.750Z,99.71
2022-09-15T09:05:00.745Z,99.30
2022-09-15T09:06:00.745Z,99.35
2022-09-15T09:07:00.745Z,99.81
2022-09-15T09:08:00.745Z,99.21
2022-09-15T09:09:00.747Z,99.91
2022-09-15T09:10:00.809Z,99.61
2022-09-15T09:11:00.744Z,99.30
2022-09-15T09:12:00.742Z,99.10
2022-09-15T09:13:00.741Z,98.50
2022-09-15T09:14:00.743Z,99.01
2022-09-15T09:15:00.743Z,98.80
2022-09-15T09:16:00.792Z,98.70
2022-09-15T09:17:00.744Z,99.16
2022-09-15T09:18:00.742Z,98.90
2022-09-15T09:19:00.746Z,98.60
2022-09-15T09:20:00.742Z,98.25
2022-09-15T09:21:00.739Z,97.99
2022-09-15T09:22:00.739Z,96.67
2022-09-15T09:23:00.743Z,96.33
2022-09-15T09:24:00.741Z,96.47
2022-09-15T09:25:08.470Z,96.42
2022-09-15T09:26:00.802Z,96.53
2022-09-15T09:27:00.738Z,96.47
2022-09-15T09:28:00.740Z,96.42
2022-09-15T09:29:00.736Z,96.42
2022-09-15T09:30:00.737Z,96.93
2022-09-15T09:31:00.773Z,96.78
2022-09-15T09:32:00.738Z,96.93
2022-09-15T09:33:00.734Z,97.19
2022-09-15T09:34:00.735Z,96.83
2022-09-15T09:35:00.734Z,96.12
2022-09-15T09:36:00.737Z,95.78
2022-09-15T09:37:00.751Z,96.42
2022-09-15T09:38:00.737Z,95.98
2022-09-15T09:39:00.736Z,96.42
2022-09-15T09:40:00.779Z,97.09
2022-09-15T09:41:02.520Z,97.69
2022-09-15T09:42:00.765Z,96.98
2022-09-15T09:43:00.735Z,96.28
2022-09-15T09:44:00.735Z,96.38
2022-09-15T09:45:00.733Z,96.18
2022-09-15T09:46:00.776Z,96.58
2022-09-15T09:47:00.749Z,96.38
2022-09-15T09:48:01.719Z,96.38
2022-09-15T09:49:00.731Z,96.08
2022-09-15T09:50:00.732Z,96.78
2022-09-15T09:51:00.729Z,96.89
2022-09-15T09:52:00.734Z,96.78
2022-09-15T09:53:00.730Z,96.98
2022-09-15T09:54:00.732Z,95.57
2022-09-15T09:55:00.730Z,95.67
2022-09-15T09:56:00.744Z,95.67
2022-09-15T09:57:00.729Z,95.98
2022-09-15T09:58:00.765Z,96.18
2022-09-15T09:59:00.733Z,95.47
2022-09-15T10:00:00.733Z,96.18
2022-09-15T10:01:00.758Z,95.37
2022-09-15T10:02:01.015Z,94.36
2022-09-15T10:03:00.734Z,94.56
2022-09-15T10:04:00.728Z,94.26
2022-09-15T10:05:00.773Z,94.46
2022-09-15T10:06:00.732Z,93.95
2022-09-15T10:07:00.730Z,94.15
2022-09-15T10:08:00.738Z,94.46
2022-09-15T10:09:00.729Z,94.66
2022-09-15T10:10:00.729Z,93.85
2022-09-15T10:11:00.738Z,91.32
2022-09-15T10:12:00.728Z,91.42
2022-09-15T10:13:00.735Z,91.93
2022-09-15T10:14:00.749Z,92.44
2022-09-15T10:15:00.723Z,93.04
2022-09-15T10:16:00.726Z,94.15
2022-09-15T10:17:00.820Z,94.15
2022-09-15T10:18:00.730Z,93.65
2022-09-15T10:19:00.726Z,94.36
2022-09-15T10:20:00.724Z,93.95
2022-09-15T10:21:00.723Z,94.01
2022-09-15T10:22:00.726Z,94.72
2022-09-15T10:23:00.726Z,94.62
2022-09-15T10:24:00.724Z,94.15
2022-09-15T10:25:00.721Z,94.42
2022-09-15T10:26:00.743Z,93.71
2022-09-15T10:27:00.721Z,92.60
2022-09-15T10:28:00.724Z,89.81
2022-09-15T10:29:00.735Z,90.41
2022-09-15T10:30:00.747Z,89.10
2022-09-15T10:31:00.722Z,90.31
2022-09-15T10:32:00.772Z,89.30
2022-09-15T10:33:00.723Z,89.91
2022-09-15T10:34:00.726Z,90.62
2022-09-15T10:35:00.722Z,92.29
2022-09-15T10:36:00.722Z,91.08
2022-09-15T10:37:00.721Z,91.53
2022-09-15T10:38:00.720Z,91.99
2022-09-15T10:39:00.723Z,92.49
2022-09-15T10:40:00.764Z,92.40
2022-09-15T10:41:00.721Z,92.54
2022-09-15T10:42:00.724Z,93.10
2022-09-15T10:43:00.720Z,93.20
2022-09-15T10:44:00.719Z,92.40
2022-09-15T10:45:00.719Z,92.60
2022-09-15T10:46:00.827Z,92.40
2022-09-15T10:47:00.730Z,89.56
2022-09-15T10:48:00.720Z,89.76
2022-09-15T10:49:00.720Z,90.73
2022-09-15T10:50:00.722Z,87.95
2022-09-15T10:51:00.719Z,89.01
2022-09-15T10:52:00.724Z,88.10
2022-09-15T10:53:00.718Z,89.42
2022-09-15T10:54:00.941Z,89.62
2022-09-15T10:55:00.720Z,89.62
2022-09-15T10:56:00.720Z,89.01
2022-09-15T10:57:00.728Z,88.71
2022-09-15T10:58:00.738Z,88.51
2022-09-15T10:59:00.722Z,88.92
2022-09-15T11:00:00.717Z,90.94
2022-09-15T11:01:00.795Z,89.62
2022-09-15T11:02:00.778Z,89.32
2022-09-15T11:03:00.721Z,87.19
2022-09-15T11:04:00.716Z,87.40
2022-09-15T11:05:00.716Z,87.30
2022-09-15T11:06:00.716Z,84.67
2022-09-15T11:07:00.718Z,86.90
2022-09-15T11:08:00.724Z,85.88
2022-09-15T11:09:00.722Z,87.40
2022-09-15T11:10:00.726Z,86.93
2022-09-15T11:11:00.717Z,85.82
2022-09-15T11:12:00.722Z,86.08
2022-09-15T11:13:00.715Z,87.13
2022-09-15T11:14:00.766Z,86.73
2022-09-15T11:15:00.714Z,86.90
2022-09-15T11:16:00.778Z,87.19
2022-09-15T11:17:00.715Z,87.19
2022-09-15T11:18:00.734Z,87.60
2022-09-15T11:19:00.715Z,89.17
2022-09-15T11:20:00.716Z,89.28
2022-09-15T11:21:00.711Z,87.36
2022-09-15T11:22:00.714Z,87.66
2022-09-15T11:23:00.713Z,88.17
2022-09-15T11:24:00.714Z,88.37
2022-09-15T11:25:00.717Z,86.19
2022-09-15T11:26:00.714Z,88.10
2022-09-15T11:27:00.712Z,87.70
2022-09-15T11:28:00.715Z,88.01
2022-09-15T11:29:00.712Z,86.79
2022-09-15T11:30:00.714Z,87.10
2022-09-15T11:31:00.794Z,87.70
2022-09-15T11:32:00.776Z,88.01
2022-09-15T11:33:00.717Z,88.21
2022-09-15T11:34:00.732Z,87.54
2022-09-15T11:35:00.713Z,89.01
2022-09-15T11:36:00.720Z,87.84
2022-09-15T11:37:00.711Z,89.06
2022-09-15T11:38:00.715Z,89.56
2022-09-15T11:39:00.712Z,86.33
2022-09-15T11:40:00.773Z,87.95
2022-09-15T11:41:00.710Z,88.15
2022-09-15T11:42:00.713Z,88.04
2022-09-15T11:43:00.736Z,87.38
2022-09-15T11:44:00.720Z,86.47
2022-09-15T11:45:00.710Z,85.82
2022-09-15T11:46:00.712Z,87.34
2022-09-15T11:47:00.709Z,88.96
2022-09-15T11:48:00.715Z,89.87
2022-09-15T11:49:00.710Z,88.35
2022-09-15T11:50:00.740Z,87.95
2022-09-15T11:51:00.711Z,87.54
2022-09-15T11:52:00.709Z,87.13
2022-09-15T11:53:00.709Z,87.13
2022-09-15T11:54:00.714Z,87.13
2022-09-15T11:55:00.710Z,88.75
2022-09-15T11:56:00.714Z,88.15
2022-09-15T11:57:00.707Z,88.04
2022-09-15T11:58:00.716Z,87.74
2022-09-15T11:59:01.065Z,85.56
2022-09-15T12:00:00.731Z,86.77
2022-09-15T12:01:00.730Z,86.67
2022-09-15T12:02:00.801Z,85.36
2022-09-15T12:03:00.734Z,88.59
2022-09-15T12:04:00.706Z,88.29
2022-09-15T12:05:00.710Z,88.90
2022-09-15T12:06:00.729Z,89.61
2022-09-15T12:08:00.715Z,86.07
2022-09-15T12:09:00.735Z,88.39
2022-09-15T12:10:00.709Z,87.18
2022-09-15T12:11:00.704Z,86.87
2022-09-15T12:12:00.707Z,87.38
2022-09-15T12:13:00.704Z,86.51
2022-09-15T12:14:00.707Z,87.28
2022-09-15T12:15:00.706Z,87.48
2022-09-15T12:16:00.757Z,86.77
2022-09-15T12:17:00.702Z,87.18
2022-09-15T12:18:06.459Z,89.70
2022-09-15T12:19:00.704Z,89.20
2022-09-15T12:20:00.706Z,89.00
2022-09-15T12:21:00.703Z,87.58
2022-09-15T12:22:00.721Z,87.34
2022-09-15T12:23:00.702Z,87.44
2022-09-15T12:24:00.699Z,85.22
2022-09-15T12:25:01.265Z,85.31
2022-09-15T12:26:00.700Z,85.02
2022-09-15T12:27:00.703Z,84.61
2022-09-15T12:28:00.705Z,84.41
2022-09-15T12:29:00.701Z,84.67
2022-09-15T12:30:00.699Z,86.33
2022-09-15T12:31:00.730Z,85.62
2022-09-15T12:32:00.729Z,86.43
2022-09-15T12:33:00.697Z,87.30
2022-09-15T12:34:00.701Z,86.13
2022-09-15T12:35:00.699Z,85.93
2022-09-15T12:36:00.697Z,85.02
2022-09-15T12:38:00.716Z,85.02
2022-09-15T12:39:00.697Z,85.62
2022-09-15T12:40:00.789Z,85.36
2022-09-15T12:41:00.698Z,85.46
2022-09-15T12:42:00.697Z,85.56
2022-09-15T12:43:00.698Z,84.45
2022-09-15T12:44:00.696Z,86.07
2022-09-15T12:45:00.694Z,86.47
2022-09-15T12:46:00.844Z,86.57
2022-09-15T12:47:00.695Z,84.75
2022-09-15T12:48:00.694Z,85.60
2022-09-15T12:49:00.692Z,86.91
2022-09-15T12:50:00.699Z,85.70
2022-09-15T12:51:00.697Z,86.71
2022-09-15T12:52:00.693Z,86.87
2022-09-15T12:53:00.690Z,87.38
2022-09-15T12:54:00.710Z,87.62